sensor_id;sensor_type;location;lat;lon;timestamp;temperature;humidity
35645;DHT22;21764;52.042;6.830;2023-04-03T00:02:16;3.30;99.90
35645;DHT22;21764;52.042;6.830;2023-04-03T00:07:16;3.10;99.90
35645;DHT22;21764;52.042;6.830;2023-04-03T00:12:17;3.10;99.90
35645;DHT22;21764;52.042;6.830;2023-04-03T00:17:18;3.00;99.90
35645;DHT22;21764;52.042;6.830;2023-04-03T00:22:18;3.00;99.90
35645;DHT22;21764;52.042;6.830;2023-04-03T00:27:19;2.90;99.90
35645;DHT22;21764;52.042;6.830;2023-04-03T00:32:20;2.80;99.90
35645;DHT22;21764;52.042;6.830;2023-04-03T00:37:21;2.70;99.90
35645;DHT22;21764;52.042;6.830;2023-04-03T00:42:21;2.60;99.90
35645;DHT22;21764;52.042;6.830;2023-04-03T00:47:23;2.60;99.90
35645;DHT22;21764;52.042;6.830;2023-04-03T00:52:28;2.70;99.90
35645;DHT22;21764;52.042;6.830;2023-04-03T00:57:31;2.70;99.90
35645;DHT22;21764;52.042;6.830;2023-04-03T01:02:32;2.60;99.90
35645;DHT22;21764;52.042;6.830;2023-04-03T01:07:33;2.50;99.90
35645;DHT22;21764;52.042;6.830;2023-04-03T01:12:38;2.50;99.90
35645;DHT22;21764;52.042;6.830;2023-04-03T01:28:18;2.20;99.90
35645;DHT22;21764;52.042;6.830;2023-04-03T01:33:20;2.20;99.90
35645;DHT22;21764;52.042;6.830;2023-04-03T01:38:22;2.10;99.90
35645;DHT22;21764;52.042;6.830;2023-04-03T01:43:22;2.10;99.90
35645;DHT22;21764;52.042;6.830;2023-04-03T01:48:23;2.00;99.90
35645;DHT22;21764;52.042;6.830;2023-04-03T01:53:24;1.90;99.90
35645;DHT22;21764;52.042;6.830;2023-04-03T01:58:25;1.90;99.90
35645;DHT22;21764;52.042;6.830;2023-04-03T02:03:26;1.90;99.90
35645;DHT22;21764;52.042;6.830;2023-04-03T02:08:26;1.80;99.90
35645;DHT22;21764;52.042;6.830;2023-04-03T02:13:27;1.80;99.90
35645;DHT22;21764;52.042;6.830;2023-04-03T02:18:28;1.70;99.90
35645;DHT22;21764;52.042;6.830;2023-04-03T02:23:28;1.70;99.90
35645;DHT22;21764;52.042;6.830;2023-04-03T02:28:29;1.60;99.90
35645;DHT22;21764;52.042;6.830;2023-04-03T02:33:30;1.50;99.90
35645;DHT22;21764;52.042;6.830;2023-04-03T02:38:31;1.60;99.90
35645;DHT22;21764;52.042;6.830;2023-04-03T02:43:32;1.50;99.90
35645;DHT22;21764;52.042;6.830;2023-04-03T02:48:33;1.50;99.90
35645;DHT22;21764;52.042;6.830;2023-04-03T02:53:35;1.40;99.90
35645;DHT22;21764;52.042;6.830;2023-04-03T02:58:36;1.30;99.90
35645;DHT22;21764;52.042;6.830;2023-04-03T03:03:37;1.20;99.90
35645;DHT22;21764;52.042;6.830;2023-04-03T03:08:38;1.20;99.90
35645;DHT22;21764;52.042;6.830;2023-04-03T03:13:39;1.20;99.90
35645;DHT22;21764;52.042;6.830;2023-04-03T03:18:39;1.10;99.90
35645;DHT22;21764;52.042;6.830;2023-04-03T03:23:40;1.10;99.90
35645;DHT22;21764;52.042;6.830;2023-04-03T03:28:41;1.10;99.90
35645;DHT22;21764;52.042;6.830;2023-04-03T03:33:42;0.90;99.90
35645;DHT22;21764;52.042;6.830;2023-04-03T03:38:42;0.90;99.90
35645;DHT22;21764;52.042;6.830;2023-04-03T03:43:43;0.70;99.90
35645;DHT22;21764;52.042;6.830;2023-04-03T03:48:43;0.70;99.90
35645;DHT22;21764;52.042;6.830;2023-04-03T03:53:45;0.60;99.90
35645;DHT22;21764;52.042;6.830;2023-04-03T03:58:46;0.60;99.90
35645;DHT22;21764;52.042;6.830;2023-04-03T04:03:46;0.30;99.90
35645;DHT22;21764;52.042;6.830;2023-04-03T04:08:47;0.40;99.90
35645;DHT22;21764;52.042;6.830;2023-04-03T04:13:47;0.30;99.90
35645;DHT22;21764;52.042;6.830;2023-04-03T04:18:48;0.30;99.90
35645;DHT22;21764;52.042;6.830;2023-04-03T04:23:49;0.30;99.90
35645;DHT22;21764;52.042;6.830;2023-04-03T04:28:49;0.20;99.90
35645;DHT22;21764;52.042;6.830;2023-04-03T04:33:50;0.30;99.90
35645;DHT22;21764;52.042;6.830;2023-04-03T04:38:51;0.10;99.90
35645;DHT22;21764;52.042;6.830;2023-04-03T04:43:53;0.10;99.90
35645;DHT22;21764;52.042;6.830;2023-04-03T04:48:53;0.20;99.90
35645;DHT22;21764;52.042;6.830;2023-04-03T04:53:54;0.20;99.90
35645;DHT22;21764;52.042;6.830;2023-04-03T04:58:55;0.10;99.90
35645;DHT22;21764;52.042;6.830;2023-04-03T05:03:55;-0.10;99.90
35645;DHT22;21764;52.042;6.830;2023-04-03T05:08:56;0.00;99.90
35645;DHT22;21764;52.042;6.830;2023-04-03T05:13:57;0.20;99.90
35645;DHT22;21764;52.042;6.830;2023-04-03T05:18:57;0.20;99.90
35645;DHT22;21764;52.042;6.830;2023-04-03T05:23:59;0.90;99.90
35645;DHT22;21764;52.042;6.830;2023-04-03T05:29:02;2.80;99.90
35645;DHT22;21764;52.042;6.830;2023-04-03T05:34:03;4.70;99.90
35645;DHT22;21764;52.042;6.830;2023-04-03T05:39:04;5.80;99.90
35645;DHT22;21764;52.042;6.830;2023-04-03T05:44:04;6.90;99.90
35645;DHT22;21764;52.042;6.830;2023-04-03T05:49:06;8.50;99.90
35645;DHT22;21764;52.042;6.830;2023-04-03T05:54:13;9.90;96.50
35645;DHT22;21764;52.042;6.830;2023-04-03T05:59:17;10.60;94.10
35645;DHT22;21764;52.042;6.830;2023-04-03T06:04:18;12.00;91.60
35645;DHT22;21764;52.042;6.830;2023-04-03T06:09:21;11.40;90.90
35645;DHT22;21764;52.042;6.830;2023-04-03T06:14:22;13.20;89.00
35645;DHT22;21764;52.042;6.830;2023-04-03T06:19:23;12.10;89.10
35645;DHT22;21764;52.042;6.830;2023-04-03T06:24:24;11.60;87.40
35645;DHT22;21764;52.042;6.830;2023-04-03T06:29:25;13.60;84.50
35645;DHT22;21764;52.042;6.830;2023-04-03T06:34:26;14.40;79.20
35645;DHT22;21764;52.042;6.830;2023-04-03T06:39:26;14.90;77.00
35645;DHT22;21764;52.042;6.830;2023-04-03T06:44:27;14.50;77.10
35645;DHT22;21764;52.042;6.830;2023-04-03T06:49:28;15.10;75.20
35645;DHT22;21764;52.042;6.830;2023-04-03T06:54:29;17.20;71.80
35645;DHT22;21764;52.042;6.830;2023-04-03T06:59:30;18.90;66.60
35645;DHT22;21764;52.042;6.830;2023-04-03T07:04:31;17.60;65.50
35645;DHT22;21764;52.042;6.830;2023-04-03T07:09:31;15.60;67.70
35645;DHT22;21764;52.042;6.830;2023-04-03T07:14:33;15.90;66.00
35645;DHT22;21764;52.042;6.830;2023-04-03T07:19:33;18.70;61.90
35645;DHT22;21764;52.042;6.830;2023-04-03T07:24:34;17.80;60.50
35645;DHT22;21764;52.042;6.830;2023-04-03T07:29:35;19.70;58.50
35645;DHT22;21764;52.042;6.830;2023-04-03T07:34:36;17.00;59.80
35645;DHT22;21764;52.042;6.830;2023-04-03T07:39:37;16.90;56.70
35645;DHT22;21764;52.042;6.830;2023-04-03T07:44:37;16.90;56.40
35645;DHT22;21764;52.042;6.830;2023-04-03T07:49:38;18.50;55.60
35645;DHT22;21764;52.042;6.830;2023-04-03T07:54:41;18.40;54.80
35645;DHT22;21764;52.042;6.830;2023-04-03T07:59:42;19.60;53.80
35645;DHT22;21764;52.042;6.830;2023-04-03T08:04:43;20.10;51.80
35645;DHT22;21764;52.042;6.830;2023-04-03T08:09:43;19.10;52.90
35645;DHT22;21764;52.042;6.830;2023-04-03T08:14:45;17.60;52.70
35645;DHT22;21764;52.042;6.830;2023-04-03T08:19:46;20.20;51.80
35645;DHT22;21764;52.042;6.830;2023-04-03T08:24:46;18.70;50.00
35645;DHT22;21764;52.042;6.830;2023-04-03T08:29:47;21.40;48.10
35645;DHT22;21764;52.042;6.830;2023-04-03T08:34:48;22.30;46.30
35645;DHT22;21764;52.042;6.830;2023-04-03T08:39:48;18.90;48.30
35645;DHT22;21764;52.042;6.830;2023-04-03T08:45:01;18.00;48.10
35645;DHT22;21764;52.042;6.830;2023-04-03T08:50:17;18.90;48.50
35645;DHT22;21764;52.042;6.830;2023-04-03T08:55:42;18.60;48.50
35645;DHT22;21764;52.042;6.830;2023-04-03T09:06:29;19.60;45.90
35645;DHT22;21764;52.042;6.830;2023-04-03T09:11:51;18.10;46.10
35645;DHT22;21764;52.042;6.830;2023-04-03T09:22:25;21.50;42.10
35645;DHT22;21764;52.042;6.830;2023-04-03T09:27:26;22.20;42.60
35645;DHT22;21764;52.042;6.830;2023-04-03T09:32:32;20.50;43.20
35645;DHT22;21764;52.042;6.830;2023-04-03T09:42:39;20.80;41.70
35645;DHT22;21764;52.042;6.830;2023-04-03T09:47:41;19.90;41.10
35645;DHT22;21764;52.042;6.830;2023-04-03T09:52:44;20.30;40.40
35645;DHT22;21764;52.042;6.830;2023-04-03T09:57:45;17.60;40.40
35645;DHT22;21764;52.042;6.830;2023-04-03T10:02:50;19.40;40.80
35645;DHT22;21764;52.042;6.830;2023-04-03T10:07:51;21.50;40.30
35645;DHT22;21764;52.042;6.830;2023-04-03T10:13:12;20.00;41.30
35645;DHT22;21764;52.042;6.830;2023-04-03T10:23:42;17.60;41.60
35645;DHT22;21764;52.042;6.830;2023-04-03T10:35:00;19.30;42.20
35645;DHT22;21764;52.042;6.830;2023-04-03T10:40:22;18.60;42.70
35645;DHT22;21764;52.042;6.830;2023-04-03T10:56:21;15.10;44.90
35645;DHT22;21764;52.042;6.830;2023-04-03T11:01:38;13.60;48.50
35645;DHT22;21764;52.042;6.830;2023-04-03T11:12:11;9.80;53.90
35645;DHT22;21764;52.042;6.830;2023-04-03T11:22:32;8.30;59.10
35645;DHT22;21764;52.042;6.830;2023-04-03T11:27:55;7.90;58.80
35645;DHT22;21764;52.042;6.830;2023-04-03T11:38:30;7.90;60.30
35645;DHT22;21764;52.042;6.830;2023-04-03T11:54:54;7.70;61.30
35645;DHT22;21764;52.042;6.830;2023-04-03T11:59:55;7.70;62.80
35645;DHT22;21764;52.042;6.830;2023-04-03T12:05:26;7.80;63.20
35645;DHT22;21764;52.042;6.830;2023-04-03T12:10:28;7.80;63.70
35645;DHT22;21764;52.042;6.830;2023-04-03T12:21:02;7.80;64.00
35645;DHT22;21764;52.042;6.830;2023-04-03T12:26:18;7.80;64.70
35645;DHT22;21764;52.042;6.830;2023-04-03T12:31:23;7.90;64.80
35645;DHT22;21764;52.042;6.830;2023-04-03T12:36:47;7.90;65.60
35645;DHT22;21764;52.042;6.830;2023-04-03T12:47:28;8.20;68.00
35645;DHT22;21764;52.042;6.830;2023-04-03T12:52:37;8.00;67.40
35645;DHT22;21764;52.042;6.830;2023-04-03T12:57:40;7.90;66.50
35645;DHT22;21764;52.042;6.830;2023-04-03T13:02:44;7.80;67.20
35645;DHT22;21764;52.042;6.830;2023-04-03T13:08:02;7.90;66.70
35645;DHT22;21764;52.042;6.830;2023-04-03T13:13:09;7.90;67.90
35645;DHT22;21764;52.042;6.830;2023-04-03T13:23:30;8.00;67.50
35645;DHT22;21764;52.042;6.830;2023-04-03T13:28:32;8.10;67.90
35645;DHT22;21764;52.042;6.830;2023-04-03T13:33:35;8.00;68.10
35645;DHT22;21764;52.042;6.830;2023-04-03T13:38:38;8.10;69.50
35645;DHT22;21764;52.042;6.830;2023-04-03T13:43:38;8.40;70.30
35645;DHT22;21764;52.042;6.830;2023-04-03T13:48:52;8.50;68.60
35645;DHT22;21764;52.042;6.830;2023-04-03T13:54:01;8.70;68.90
35645;DHT22;21764;52.042;6.830;2023-04-03T14:04:31;8.50;68.90
35645;DHT22;21764;52.042;6.830;2023-04-03T14:09:32;8.30;68.80
35645;DHT22;21764;52.042;6.830;2023-04-03T14:14:35;8.30;68.70
35645;DHT22;21764;52.042;6.830;2023-04-03T14:19:38;8.20;70.00
35645;DHT22;21764;52.042;6.830;2023-04-03T14:24:39;8.10;66.80
35645;DHT22;21764;52.042;6.830;2023-04-03T14:29:40;8.20;68.90
35645;DHT22;21764;52.042;6.830;2023-04-03T14:34:42;8.20;69.10
35645;DHT22;21764;52.042;6.830;2023-04-03T14:39:44;8.30;69.60
35645;DHT22;21764;52.042;6.830;2023-04-03T14:44:45;8.30;69.10
35645;DHT22;21764;52.042;6.830;2023-04-03T14:49:46;8.30;67.70
35645;DHT22;21764;52.042;6.830;2023-04-03T14:54:48;8.30;68.60
35645;DHT22;21764;52.042;6.830;2023-04-03T14:59:49;8.30;67.70
35645;DHT22;21764;52.042;6.830;2023-04-03T15:04:50;8.40;68.50
35645;DHT22;21764;52.042;6.830;2023-04-03T15:09:51;8.60;69.50
35645;DHT22;21764;52.042;6.830;2023-04-03T15:14:51;8.50;70.00
35645;DHT22;21764;52.042;6.830;2023-04-03T15:19:52;8.20;68.10
35645;DHT22;21764;52.042;6.830;2023-04-03T15:24:53;8.40;69.70
35645;DHT22;21764;52.042;6.830;2023-04-03T15:29:54;8.20;70.20
35645;DHT22;21764;52.042;6.830;2023-04-03T15:34:55;8.10;68.90
35645;DHT22;21764;52.042;6.830;2023-04-03T15:39:55;8.20;69.90
35645;DHT22;21764;52.042;6.830;2023-04-03T15:44:56;8.20;68.80
35645;DHT22;21764;52.042;6.830;2023-04-03T15:49:57;8.20;68.80
35645;DHT22;21764;52.042;6.830;2023-04-03T15:54:58;8.30;71.20
35645;DHT22;21764;52.042;6.830;2023-04-03T15:59:58;8.30;69.80
35645;DHT22;21764;52.042;6.830;2023-04-03T16:04:59;7.90;68.10
35645;DHT22;21764;52.042;6.830;2023-04-03T16:10:01;7.80;69.60
35645;DHT22;21764;52.042;6.830;2023-04-03T16:15:02;8.00;72.40
35645;DHT22;21764;52.042;6.830;2023-04-03T16:20:04;8.20;71.00
35645;DHT22;21764;52.042;6.830;2023-04-03T16:25:07;8.10;70.60
35645;DHT22;21764;52.042;6.830;2023-04-03T16:30:09;8.00;69.70
35645;DHT22;21764;52.042;6.830;2023-04-03T16:35:10;7.90;71.30
35645;DHT22;21764;52.042;6.830;2023-04-03T16:40:11;8.00;71.30
35645;DHT22;21764;52.042;6.830;2023-04-03T16:45:12;7.80;71.00
35645;DHT22;21764;52.042;6.830;2023-04-03T16:50:13;7.80;70.00
35645;DHT22;21764;52.042;6.830;2023-04-03T16:55:14;7.80;71.10
35645;DHT22;21764;52.042;6.830;2023-04-03T17:00:15;7.60;70.10
35645;DHT22;21764;52.042;6.830;2023-04-03T17:05:16;7.50;70.60
35645;DHT22;21764;52.042;6.830;2023-04-03T17:10:16;7.50;72.00
35645;DHT22;21764;52.042;6.830;2023-04-03T17:15:17;7.50;72.60
35645;DHT22;21764;52.042;6.830;2023-04-03T17:20:20;7.40;70.70
35645;DHT22;21764;52.042;6.830;2023-04-03T17:25:21;7.30;71.60
35645;DHT22;21764;52.042;6.830;2023-04-03T17:30:22;7.20;71.20
35645;DHT22;21764;52.042;6.830;2023-04-03T17:35:24;7.10;71.70
35645;DHT22;21764;52.042;6.830;2023-04-03T17:40:24;7.00;71.50
35645;DHT22;21764;52.042;6.830;2023-04-03T17:45:27;6.80;72.70
35645;DHT22;21764;52.042;6.830;2023-04-03T17:56:26;6.50;75.10
35645;DHT22;21764;52.042;6.830;2023-04-03T18:01:31;6.30;76.20
35645;DHT22;21764;52.042;6.830;2023-04-03T18:06:43;6.30;75.30
35645;DHT22;21764;52.042;6.830;2023-04-03T18:11:46;6.10;76.20
35645;DHT22;21764;52.042;6.830;2023-04-03T18:16:47;5.90;77.70
35645;DHT22;21764;52.042;6.830;2023-04-03T18:21:48;5.80;78.30
35645;DHT22;21764;52.042;6.830;2023-04-03T18:26:56;5.60;79.00
35645;DHT22;21764;52.042;6.830;2023-04-03T18:32:00;5.40;80.20
35645;DHT22;21764;52.042;6.830;2023-04-03T18:37:03;5.30;81.40
35645;DHT22;21764;52.042;6.830;2023-04-03T18:42:16;5.00;84.30
35645;DHT22;21764;52.042;6.830;2023-04-03T18:47:18;4.90;84.60
35645;DHT22;21764;52.042;6.830;2023-04-03T18:52:18;4.80;85.60
35645;DHT22;21764;52.042;6.830;2023-04-03T18:57:20;4.70;86.50
35645;DHT22;21764;52.042;6.830;2023-04-03T19:02:20;4.50;89.70
35645;DHT22;21764;52.042;6.830;2023-04-03T19:07:23;4.50;90.00
35645;DHT22;21764;52.042;6.830;2023-04-03T19:12:24;4.50;90.00
35645;DHT22;21764;52.042;6.830;2023-04-03T19:17:25;4.40;90.50
35645;DHT22;21764;52.042;6.830;2023-04-03T19:22:27;4.40;90.10
35645;DHT22;21764;52.042;6.830;2023-04-03T19:27:29;4.30;90.70
35645;DHT22;21764;52.042;6.830;2023-04-03T19:32:30;4.20;91.40
35645;DHT22;21764;52.042;6.830;2023-04-03T19:37:31;4.10;91.40
35645;DHT22;21764;52.042;6.830;2023-04-03T19:42:32;4.00;91.20
35645;DHT22;21764;52.042;6.830;2023-04-03T19:47:36;3.90;91.30
35645;DHT22;21764;52.042;6.830;2023-04-03T19:52:37;3.80;92.30
35645;DHT22;21764;52.042;6.830;2023-04-03T19:57:37;3.70;92.90
35645;DHT22;21764;52.042;6.830;2023-04-03T20:02:39;3.80;92.20
35645;DHT22;21764;52.042;6.830;2023-04-03T20:07:40;3.80;91.40
35645;DHT22;21764;52.042;6.830;2023-04-03T20:12:41;3.80;92.00
35645;DHT22;21764;52.042;6.830;2023-04-03T20:17:42;3.70;92.30
35645;DHT22;21764;52.042;6.830;2023-04-03T20:22:43;3.50;92.80
35645;DHT22;21764;52.042;6.830;2023-04-03T20:27:44;3.50;92.90
35645;DHT22;21764;52.042;6.830;2023-04-03T20:32:44;3.40;93.20
35645;DHT22;21764;52.042;6.830;2023-04-03T20:37:45;3.40;93.20
35645;DHT22;21764;52.042;6.830;2023-04-03T20:42:46;3.20;94.50
35645;DHT22;21764;52.042;6.830;2023-04-03T20:47:47;3.10;94.40
35645;DHT22;21764;52.042;6.830;2023-04-03T20:52:50;3.00;95.00
35645;DHT22;21764;52.042;6.830;2023-04-03T20:57:51;3.00;94.40
35645;DHT22;21764;52.042;6.830;2023-04-03T21:02:55;3.00;95.20
35645;DHT22;21764;52.042;6.830;2023-04-03T21:19:19;2.70;95.10
35645;DHT22;21764;52.042;6.830;2023-04-03T21:24:21;2.80;95.00
35645;DHT22;21764;52.042;6.830;2023-04-03T21:29:22;2.70;95.50
35645;DHT22;21764;52.042;6.830;2023-04-03T21:34:27;2.80;96.20
35645;DHT22;21764;52.042;6.830;2023-04-03T21:39:28;2.80;96.50
35645;DHT22;21764;52.042;6.830;2023-04-03T21:44:29;2.50;96.70
35645;DHT22;21764;52.042;6.830;2023-04-03T21:49:30;2.40;97.00
35645;DHT22;21764;52.042;6.830;2023-04-03T21:54:31;2.30;96.90
35645;DHT22;21764;52.042;6.830;2023-04-03T21:59:33;2.10;98.90
35645;DHT22;21764;52.042;6.830;2023-04-03T22:04:34;2.00;99.50
35645;DHT22;21764;52.042;6.830;2023-04-03T22:09:34;1.90;99.90
35645;DHT22;21764;52.042;6.830;2023-04-03T22:14:35;2.00;99.90
35645;DHT22;21764;52.042;6.830;2023-04-03T22:19:36;2.00;99.40
35645;DHT22;21764;52.042;6.830;2023-04-03T22:24:37;2.00;99.90
35645;DHT22;21764;52.042;6.830;2023-04-03T22:29:38;2.00;99.90
35645;DHT22;21764;52.042;6.830;2023-04-03T22:34:39;1.80;99.90
35645;DHT22;21764;52.042;6.830;2023-04-03T22:39:40;1.80;99.90
35645;DHT22;21764;52.042;6.830;2023-04-03T22:44:41;1.70;99.90
35645;DHT22;21764;52.042;6.830;2023-04-03T22:49:42;1.50;99.90
35645;DHT22;21764;52.042;6.830;2023-04-03T22:54:42;1.40;99.90
35645;DHT22;21764;52.042;6.830;2023-04-03T22:59:43;1.50;99.90
35645;DHT22;21764;52.042;6.830;2023-04-03T23:04:44;1.50;99.90
35645;DHT22;21764;52.042;6.830;2023-04-03T23:09:44;1.30;99.90
35645;DHT22;21764;52.042;6.830;2023-04-03T23:14:45;1.30;99.90
35645;DHT22;21764;52.042;6.830;2023-04-03T23:19:45;1.20;99.90
35645;DHT22;21764;52.042;6.830;2023-04-03T23:24:46;1.10;99.90
35645;DHT22;21764;52.042;6.830;2023-04-03T23:29:47;1.00;99.90
35645;DHT22;21764;52.042;6.830;2023-04-03T23:34:48;0.80;99.90
35645;DHT22;21764;52.042;6.830;2023-04-03T23:39:48;0.90;99.90
35645;DHT22;21764;52.042;6.830;2023-04-03T23:44:49;1.00;99.90
35645;DHT22;21764;52.042;6.830;2023-04-03T23:49:50;1.20;99.90
35645;DHT22;21764;52.042;6.830;2023-04-03T23:54:51;1.10;99.90
35645;DHT22;21764;52.042;6.830;2023-04-03T23:59:51;0.90;99.90
